createdAt,value
2018-04-23T00:00:00.871Z,101559.54
2018-04-23T00:03:04.216Z,101563.17
2018-04-23T00:06:07.612Z,101561.88
2018-04-23T00:09:10.906Z,101561.70
2018-04-23T00:12:14.166Z,101558.35
2018-04-23T00:15:17.459Z,101555.98
2018-04-23T00:18:20.796Z,101557.52
2018-04-23T00:21:24.035Z,101562.08
2018-04-23T00:24:27.373Z,101557.04
2018-04-23T00:27:30.643Z,101552.64
2018-04-23T00:30:33.920Z,101553.12
2018-04-23T00:33:37.176Z,101552.44
2018-04-23T00:36:42.524Z,101550.67
2018-04-23T00:39:46.348Z,101549.11
2018-04-23T00:42:49.727Z,101553.99
2018-04-23T00:45:52.923Z,101548.98
2018-04-23T00:48:56.484Z,101550.09
2018-04-23T00:51:59.838Z,101548.64
2018-04-23T00:55:04.241Z,101549.41
2018-04-23T00:58:07.555Z,101547.81
2018-04-23T01:01:10.888Z,101546.94
2018-04-23T01:04:14.243Z,101546.74
2018-04-23T01:07:17.666Z,101548.39
2018-04-23T01:10:21.054Z,101551.67
2018-04-23T01:13:24.355Z,101551.81
2018-04-23T01:16:27.656Z,101554.92
2018-04-23T01:19:31.081Z,101558.21
2018-04-23T01:22:34.439Z,101556.09
2018-04-23T01:25:37.748Z,101555.17
2018-04-23T01:28:41.029Z,101559.96
2018-04-23T01:31:45.297Z,101561.26
2018-04-23T01:34:48.560Z,101565.60
2018-04-23T01:37:51.963Z,101567.88
2018-04-23T01:40:55.341Z,101567.38
2018-04-23T01:43:59.688Z,101567.14
2018-04-23T01:47:03.161Z,101562.58
2018-04-23T01:50:06.488Z,101568.44
2018-04-23T01:53:09.704Z,101570.07
2018-04-23T01:56:12.972Z,101573.68
2018-04-23T01:59:16.511Z,101575.49
2018-04-23T02:02:19.723Z,101582.16
2018-04-23T02:05:23.068Z,101581.38
2018-04-23T02:08:26.468Z,101587.23
2018-04-23T02:11:29.747Z,101589.66
2018-04-23T02:14:33.019Z,101594.06
2018-04-23T02:17:36.359Z,101593.04
2018-04-23T02:20:39.654Z,101591.31
2018-04-23T02:23:43.056Z,101595.28
2018-04-23T02:26:47.220Z,101596.03
2018-04-23T02:29:50.571Z,101591.53
2018-04-23T02:32:53.870Z,101589.40
2018-04-23T02:35:57.321Z,101589.50
2018-04-23T02:39:00.776Z,101585.33
2018-04-23T02:42:03.992Z,101584.28
2018-04-23T02:45:07.404Z,101584.27
2018-04-23T02:48:10.707Z,101586.79
2018-04-23T02:51:14.067Z,101585.96
2018-04-23T02:54:18.518Z,101587.36
2018-04-23T02:57:21.879Z,101593.07
2018-04-23T03:00:25.094Z,101590.24
2018-04-23T03:03:29.076Z,101588.24
2018-04-23T03:06:32.412Z,101578.80
2018-04-23T03:09:35.704Z,101583.14
2018-04-23T03:12:38.979Z,101578.10
2018-04-23T03:15:42.288Z,101574.61
2018-04-23T03:18:45.543Z,101571.23
2018-04-23T03:21:48.777Z,101568.18
2018-04-23T03:24:52.192Z,101570.15
2018-04-23T03:27:56.232Z,101573.10
2018-04-23T03:30:59.504Z,101570.38
2018-04-23T03:34:02.868Z,101570.38
2018-04-23T03:37:06.202Z,101567.91
2018-04-23T03:40:09.496Z,101563.07
2018-04-23T03:43:12.848Z,101566.10
2018-04-23T03:46:16.191Z,101570.31
2018-04-23T03:49:19.444Z,101570.97
2018-04-23T03:52:22.787Z,101571.58
2018-04-23T03:55:26.942Z,101572.91
2018-04-23T03:58:30.205Z,101568.54
2018-04-23T04:01:33.597Z,101570.23
2018-04-23T04:04:36.923Z,101568.87
2018-04-23T04:07:40.172Z,101568.58
2018-04-23T04:10:43.519Z,101570.73
2018-04-23T04:13:58.239Z,101571.16
2018-04-23T04:17:01.512Z,101574.91
2018-04-23T04:20:04.810Z,101580.55
2018-04-23T04:23:08.109Z,101577.15
2018-04-23T04:26:13.399Z,101578.30
2018-04-23T04:29:16.824Z,101582.88
2018-04-23T04:32:20.190Z,101581.63
2018-04-23T04:35:23.504Z,101579.94
2018-04-23T04:38:28.136Z,101581.21
2018-04-23T04:41:31.445Z,101585.50
2018-04-23T04:44:34.594Z,101586.83
2018-04-23T04:47:37.932Z,101591.67
2018-04-23T04:50:41.234Z,101596.66
2018-04-23T04:53:44.504Z,101593.27
2018-04-23T04:56:47.972Z,101592.09
2018-04-23T04:59:51.277Z,101591.41
2018-04-23T05:02:55.093Z,101589.73
2018-04-23T05:05:58.373Z,101588.85
2018-04-23T05:09:01.686Z,101591.90
2018-04-23T05:12:05.022Z,101597.42
2018-04-23T05:15:08.405Z,101611.53
2018-04-23T05:18:11.724Z,101613.12
2018-04-23T05:21:15.012Z,101611.07
2018-04-23T05:24:18.428Z,101614.21
2018-04-23T05:27:21.812Z,101615.42
2018-04-23T05:30:26.281Z,101609.56
2018-04-23T05:33:29.668Z,101609.07
2018-04-23T05:36:33.041Z,101601.45
2018-04-23T05:39:36.317Z,101603.78
2018-04-23T05:42:39.725Z,101616.85
2018-04-23T05:45:43.026Z,101623.44
2018-04-23T05:48:46.252Z,101619.95
2018-04-23T05:51:49.623Z,101616.03
2018-04-23T05:54:53.010Z,101630.94
2018-04-23T05:57:56.343Z,101636.19
2018-04-23T06:00:59.704Z,101644.63
2018-04-23T06:04:02.986Z,101674.76
2018-04-23T06:07:09.868Z,101698.10
2018-04-23T06:10:13.149Z,101700.87
2018-04-23T06:13:16.275Z,101704.44
2018-04-23T06:16:19.605Z,101712.92
2018-04-23T06:19:22.883Z,101724.78
2018-04-23T06:22:26.267Z,101729.24
2018-04-23T06:25:29.477Z,101719.36
2018-04-23T06:28:32.706Z,101717.38
2018-04-23T06:31:36.176Z,101721.76
2018-04-23T06:34:39.573Z,101728.31
2018-04-23T06:37:42.800Z,101732.05
2018-04-23T06:40:46.155Z,101720.38
2018-04-23T06:43:49.934Z,101742.10
2018-04-23T06:46:54.299Z,101748.34
2018-04-23T06:49:57.584Z,101744.80
2018-04-23T06:53:00.812Z,101738.04
2018-04-23T06:56:05.124Z,101743.56
2018-04-23T06:59:08.374Z,101760.44
2018-04-23T07:02:11.651Z,101764.11
2018-04-23T07:05:15.029Z,101753.46
2018-04-23T07:08:18.320Z,101750.23
2018-04-23T07:11:21.678Z,101746.50
2018-04-23T07:14:24.988Z,101743.89
2018-04-23T07:17:28.520Z,101768.30
2018-04-23T07:20:31.960Z,101776.54
2018-04-23T07:23:35.297Z,101779.71
2018-04-23T07:26:38.486Z,101780.36
2018-04-23T07:29:41.893Z,101785.42
2018-04-23T07:32:45.275Z,101790.89
2018-04-23T07:35:48.522Z,101797.16
2018-04-23T07:38:51.801Z,101795.57
2018-04-23T07:41:55.187Z,101814.79
2018-04-23T07:44:58.382Z,101824.02
2018-04-23T07:48:01.799Z,101836.61
2018-04-23T07:51:05.218Z,101846.01
2018-04-23T07:54:08.553Z,101857.45
2018-04-23T07:57:11.995Z,101856.28
2018-04-23T08:00:15.411Z,101851.40
2018-04-23T08:03:18.902Z,101842.99
2018-04-23T08:06:22.100Z,101841.41
2018-04-23T08:09:25.504Z,101848.01
2018-04-23T08:12:28.878Z,101852.86
2018-04-23T08:15:32.209Z,101852.85
2018-04-23T08:18:35.519Z,101858.15
2018-04-23T08:21:38.768Z,101857.76
2018-04-23T08:24:42.084Z,101865.91
2018-04-23T08:27:45.403Z,101874.74
2018-04-23T08:30:48.720Z,101879.95
2018-04-23T08:33:51.953Z,101887.44
2018-04-23T08:36:55.268Z,101880.75
2018-04-23T08:39:58.598Z,101877.81
2018-04-23T08:43:01.954Z,101876.72
2018-04-23T08:46:05.224Z,101872.96
2018-04-23T08:49:08.573Z,101873.27
2018-04-23T08:52:11.956Z,101872.38
2018-04-23T08:55:15.250Z,101874.89
2018-04-23T08:58:18.552Z,101875.98
2018-04-23T09:01:22.119Z,101882.48
2018-04-23T09:04:25.253Z,101881.15
2018-04-23T09:07:29.663Z,101875.12
2018-04-23T09:10:32.912Z,101872.53
2018-04-23T09:13:36.208Z,101862.73
2018-04-23T09:16:39.521Z,101862.43
2018-04-23T09:19:42.877Z,101862.93
2018-04-23T09:22:46.021Z,101869.85
2018-04-23T09:25:49.344Z,101865.02
2018-04-23T09:28:52.730Z,101873.67
2018-04-23T09:31:56.036Z,101869.75
2018-04-23T09:34:59.287Z,101862.98
2018-04-23T09:38:02.645Z,101858.05
2018-04-23T09:41:05.827Z,101851.33
2018-04-23T09:44:09.063Z,101847.91
2018-04-23T09:47:12.455Z,101846.25
2018-04-23T09:50:15.829Z,101848.34
2018-04-23T09:53:19.117Z,101842.23
2018-04-23T09:56:22.532Z,101841.46
2018-04-23T09:59:25.911Z,101837.42
2018-04-23T10:02:29.233Z,101831.54
2018-04-23T10:05:32.604Z,101836.50
2018-04-23T10:08:35.989Z,101840.88
2018-04-23T10:11:39.329Z,101846.39
2018-04-23T10:14:42.632Z,101847.71
2018-04-23T10:17:46.042Z,101848.92
2018-04-23T10:20:49.439Z,101844.14
2018-04-23T10:23:53.809Z,101841.49
2018-04-23T10:26:57.153Z,101843.90
2018-04-23T10:30:00.581Z,101842.95
2018-04-23T10:33:03.781Z,101845.56
2018-04-23T10:36:07.158Z,101848.36
2018-04-23T10:39:10.557Z,101843.15
2018-04-23T10:42:13.809Z,101844.32
2018-04-23T10:45:16.976Z,101839.78
2018-04-23T10:48:20.256Z,101842.73
2018-04-23T10:51:23.647Z,101839.12
2018-04-23T10:54:26.904Z,101844.24
2018-04-23T10:57:30.137Z,101851.32
2018-04-23T11:00:33.307Z,101857.09
2018-04-23T11:03:36.564Z,101852.15
2018-04-23T11:06:39.922Z,101851.19
2018-04-23T11:09:44.076Z,101847.26
2018-04-23T11:12:47.296Z,101844.79
2018-04-23T11:15:50.651Z,101849.79
2018-04-23T11:18:53.964Z,101844.91
2018-04-23T11:21:57.488Z,101848.86
2018-04-23T11:25:00.921Z,101844.14
2018-04-23T11:28:04.403Z,101846.65
2018-04-23T11:31:07.608Z,101845.49
2018-04-23T11:34:10.884Z,101853.10
2018-04-23T11:37:14.233Z,101853.21
2018-04-23T11:40:17.506Z,101838.48
2018-04-23T11:43:20.783Z,101834.94
2018-04-23T11:46:24.313Z,101836.92
2018-04-23T11:49:27.623Z,101837.89
2018-04-23T11:52:31.045Z,101830.50
2018-04-23T11:55:34.281Z,101830.62
2018-04-23T11:58:37.477Z,101836.75
2018-04-23T12:01:40.884Z,101836.57
2018-04-23T12:04:44.200Z,101837.24
2018-04-23T12:07:47.653Z,101837.34
2018-04-23T12:10:51.058Z,101835.65
2018-04-23T12:13:54.392Z,101831.45
2018-04-23T12:16:57.623Z,101827.55
2018-04-23T12:20:01.017Z,101827.32
2018-04-23T12:23:04.370Z,101827.31
2018-04-23T12:26:24.673Z,101822.14
2018-04-23T12:29:28.272Z,101822.54
2018-04-23T12:32:31.715Z,101825.53
2018-04-23T12:35:35.023Z,101821.86
2018-04-23T12:38:38.384Z,101821.64
2018-04-23T12:41:41.537Z,101816.71
2018-04-23T12:44:44.863Z,101816.26
2018-04-23T12:47:48.228Z,101820.73
2018-04-23T12:50:51.560Z,101807.32
2018-04-23T12:53:54.960Z,101793.99
2018-04-23T12:56:58.510Z,101801.77
2018-04-23T13:00:01.823Z,101790.74
2018-04-23T13:03:05.062Z,101779.00
2018-04-23T13:06:09.437Z,101767.52
2018-04-23T13:09:12.753Z,101766.10
2018-04-23T13:12:16.201Z,101759.19
2018-04-23T13:15:20.541Z,101754.67
2018-04-23T13:18:23.929Z,101747.54
2018-04-23T13:21:27.199Z,101747.75
2018-04-23T13:24:31.601Z,101737.11
2018-04-23T13:27:34.956Z,101735.98
2018-04-23T13:30:38.266Z,101728.73
2018-04-23T13:33:41.965Z,101731.03
2018-04-23T13:36:45.285Z,101729.48
2018-04-23T13:39:48.506Z,101728.59
2018-04-23T13:42:51.857Z,101713.51
2018-04-23T13:45:55.021Z,101706.88
2018-04-23T13:48:58.449Z,101705.12
2018-04-23T13:52:01.698Z,101697.38
2018-04-23T13:55:05.116Z,101704.35
2018-04-23T13:58:08.457Z,101700.70
2018-04-23T14:01:11.766Z,101702.16
2018-04-23T14:04:16.191Z,101700.63
2018-04-23T14:07:19.569Z,101693.39
2018-04-23T14:10:22.751Z,101687.51
2018-04-23T14:13:27.163Z,101682.00
2018-04-23T14:16:30.447Z,101676.49
2018-04-23T14:19:33.826Z,101672.12
2018-04-23T14:22:37.146Z,101660.59
2018-04-23T14:25:40.485Z,101655.45
2018-04-23T14:28:43.897Z,101656.09
2018-04-23T14:31:47.347Z,101654.91
2018-04-23T14:34:50.687Z,101661.84
2018-04-23T14:37:54.002Z,101659.36
2018-04-23T14:40:57.345Z,101668.80
2018-04-23T14:44:00.701Z,101672.55
2018-04-23T14:47:04.085Z,101671.63
2018-04-23T14:50:07.415Z,101675.18
2018-04-23T14:53:10.807Z,101675.34
2018-04-23T14:56:14.240Z,101684.94
2018-04-23T14:59:17.627Z,101682.34
2018-04-23T15:02:20.901Z,101674.69
2018-04-23T15:05:24.272Z,101677.49
2018-04-23T15:08:27.681Z,101676.87
2018-04-23T15:11:30.832Z,101685.83
2018-04-23T15:14:34.134Z,101686.92
2018-04-23T15:17:37.468Z,101700.45
2018-04-23T15:20:40.880Z,101698.81
2018-04-23T15:23:44.223Z,101710.15
2018-04-23T15:26:47.583Z,101720.17
2018-04-23T15:29:50.858Z,101733.32
2018-04-23T15:32:54.212Z,101733.46
2018-04-23T15:35:57.620Z,101738.47
2018-04-23T15:39:01.884Z,101740.70
2018-04-23T15:42:05.091Z,101744.33
2018-04-23T15:45:08.843Z,101763.05
2018-04-23T15:48:12.774Z,101757.95
2018-04-23T15:51:16.841Z,101762.51
2018-04-23T15:54:20.822Z,101772.51
2018-04-23T15:57:24.389Z,101766.22
2018-04-23T16:00:28.097Z,101757.93
2018-04-23T16:03:31.907Z,101778.67
2018-04-23T18:13:48.545Z,101870.90
2018-04-23T18:48:37.482Z,101900.48
2018-04-23T18:51:40.654Z,101906.10
2018-04-23T18:54:43.998Z,101911.14
2018-04-23T18:57:47.274Z,101909.79
2018-04-23T19:00:50.672Z,101909.99
2018-04-23T19:03:53.947Z,101923.91
2018-04-23T19:06:57.646Z,101926.39
2018-04-23T19:10:01.085Z,101926.88
2018-04-23T19:13:04.472Z,101925.93
2018-04-23T19:16:08.807Z,101933.32
2018-04-23T19:19:12.200Z,101931.83
2018-04-23T19:22:15.380Z,101933.47
2018-04-23T19:25:18.868Z,101937.01
2018-04-23T19:28:22.212Z,101937.38
2018-04-23T19:31:26.132Z,101945.12
2018-04-23T19:34:29.470Z,101941.22
2018-04-23T19:37:32.690Z,101946.54
2018-04-23T19:40:36.199Z,101950.67
2018-04-23T19:43:39.590Z,101955.43
2018-04-23T19:46:42.906Z,101955.22
2018-04-23T19:49:46.297Z,101958.57
2018-04-23T19:52:49.700Z,101960.64
2018-04-23T19:55:54.498Z,101966.18
2018-04-23T19:58:57.830Z,101965.81
2018-04-23T20:02:02.160Z,101964.29
2018-04-23T20:05:05.561Z,101959.68
2018-04-23T20:08:08.866Z,101956.24
2018-04-23T20:11:12.255Z,101957.54
2018-04-23T20:14:15.569Z,101958.03
2018-04-23T20:17:18.960Z,101962.54
2018-04-23T20:20:22.428Z,101964.20
2018-04-23T20:23:25.744Z,101967.53
2018-04-23T20:26:29.191Z,101970.90
2018-04-23T20:29:32.498Z,101976.24
2018-04-23T20:32:35.844Z,101977.56
2018-04-23T20:35:39.136Z,101980.56
2018-04-23T20:38:42.483Z,101977.01
2018-04-23T20:41:45.803Z,101980.90
2018-04-23T20:44:49.073Z,101985.47
2018-04-23T20:47:52.439Z,101993.96
2018-04-23T20:50:55.625Z,101994.27
2018-04-23T20:54:00.081Z,101992.49
2018-04-23T20:57:04.255Z,101997.75
2018-04-23T21:00:09.324Z,101993.90
2018-04-23T21:03:13.524Z,102005.68
2018-04-23T21:06:17.431Z,102008.95
2018-04-23T21:09:22.812Z,102020.36
2018-04-23T21:12:26.764Z,102013.31
2018-04-23T21:15:31.740Z,102013.44
2018-04-23T21:18:35.348Z,102023.95
2018-04-23T21:21:38.656Z,102024.17
2018-04-23T21:24:41.941Z,102019.74
2018-04-23T21:27:45.378Z,102021.99
2018-04-23T21:30:48.747Z,102018.19
2018-04-23T21:33:51.969Z,102026.10
2018-04-23T21:36:56.346Z,102025.13
2018-04-23T21:39:59.991Z,102027.14
2018-04-23T21:43:04.230Z,102032.98
2018-04-23T21:46:07.588Z,102026.48
2018-04-23T21:49:10.874Z,102033.01
2018-04-23T21:52:14.268Z,102033.11
2018-04-23T21:55:17.711Z,102040.83
2018-04-23T21:58:21.080Z,102038.85
2018-04-23T22:01:25.398Z,102036.90
2018-04-23T22:04:28.721Z,102045.61
2018-04-23T22:07:33.873Z,102045.98
2018-04-23T22:10:37.129Z,102045.46
2018-04-23T22:13:40.683Z,102048.08
2018-04-23T22:16:43.982Z,102047.54
2018-04-23T22:19:47.331Z,102051.60
2018-04-23T22:22:50.741Z,102056.57
2018-04-23T22:25:54.001Z,102057.94
2018-04-23T22:28:57.332Z,102061.30
2018-04-23T22:32:00.625Z,102066.73
2018-04-23T22:35:04.152Z,102066.87
2018-04-23T22:38:07.517Z,102071.97
2018-04-23T22:41:10.816Z,102075.47
2018-04-23T22:44:14.224Z,102081.80
2018-04-23T22:47:17.594Z,102080.20
2018-04-23T22:50:20.944Z,102085.40
2018-04-23T22:53:24.283Z,102083.83
2018-04-23T22:56:27.617Z,102088.34
2018-04-23T22:59:31.195Z,102082.40
2018-04-23T23:02:34.557Z,102080.62
2018-04-23T23:05:37.926Z,102081.06
2018-04-23T23:08:41.067Z,102084.40
2018-04-23T23:11:44.488Z,102089.76
2018-04-23T23:14:47.755Z,102087.06
2018-04-23T23:17:51.116Z,102088.52
2018-04-23T23:20:54.408Z,102086.35
2018-04-23T23:23:57.709Z,102090.05
2018-04-23T23:27:01.184Z,102097.69
2018-04-23T23:30:04.683Z,102099.12
2018-04-23T23:33:08.013Z,102095.26
2018-04-23T23:36:11.418Z,102089.50
2018-04-23T23:39:15.735Z,102089.51
2018-04-23T23:42:19.228Z,102093.51
2018-04-23T23:45:22.383Z,102096.75
2018-04-23T23:48:25.721Z,102089.36
2018-04-23T23:51:29.041Z,102086.48
2018-04-23T23:54:32.544Z,102084.25
2018-04-23T23:57:41.576Z,102078.65
